< < Back
Terminal Aerodrome Forecast


Current Version              Previous Versions:   1  2  3  4  5  6  7  8  9  

Terminal Aerodrome Forecast

656
FTUS44 KBMX 252336
TAFBHM
TAF
KBHM 252336Z 2600/2624 06006KT P6SM TSRA SCT050CB SCT110
     FM260015 08002KT P6SM SCT110 SCT250
     FM261600 07006KT P6SM SCT050 SCT250=

Latest METAR

703
SAUS70 KWBC 260256
MTRBHM
METAR KBHM 260253Z 00000KT 10SM CLR 27/23 A3012 RMK AO2 SLP191 T02670233
51015


USA.gov is the U.S. government's official web portal to all federal, state and local government web resources and services.